createdAt,value
2018-03-24T00:00:07.458Z,79.64
2018-03-24T00:02:35.013Z,80.35
2018-03-24T00:05:02.479Z,80.01
2018-03-24T00:07:29.965Z,79.56
2018-03-24T00:09:57.435Z,79.22
2018-03-24T00:12:24.918Z,79.05
2018-03-24T00:14:52.411Z,79.23
2018-03-24T00:17:19.866Z,78.75
2018-03-24T00:19:47.319Z,78.99
2018-03-24T00:22:14.820Z,78.85
2018-03-24T00:24:42.275Z,78.85
2018-03-24T00:27:09.739Z,79.20
2018-03-24T00:29:37.271Z,78.51
2018-03-24T00:32:04.743Z,78.99
2018-03-24T00:34:32.300Z,78.57
2018-03-24T00:36:59.806Z,78.75
2018-03-24T00:39:27.278Z,78.88
2018-03-24T00:41:54.870Z,78.76
2018-03-24T00:44:22.346Z,78.54
2018-03-24T00:46:49.806Z,78.57
2018-03-24T00:49:17.342Z,78.71
2018-03-24T00:51:44.802Z,78.75
2018-03-24T00:54:12.259Z,78.21
2018-03-24T00:56:39.757Z,78.44
2018-03-24T00:59:07.283Z,78.58
2018-03-24T01:01:34.842Z,78.01
2018-03-24T01:04:02.336Z,77.81
2018-03-24T01:06:29.894Z,78.21
2018-03-24T01:08:57.362Z,77.60
2018-03-24T01:11:24.867Z,77.92
2018-03-24T01:13:52.336Z,77.90
2018-03-24T01:16:19.791Z,78.41
2018-03-24T01:18:47.289Z,78.20
2018-03-24T01:21:14.751Z,78.06
2018-03-24T01:23:42.220Z,77.60
2018-03-24T01:26:09.686Z,77.63
2018-03-24T01:28:37.172Z,78.09
2018-03-24T01:31:04.631Z,77.83
2018-03-24T01:33:32.224Z,77.52
2018-03-24T01:35:59.726Z,77.80
2018-03-24T01:38:27.183Z,77.89
2018-03-24T01:40:54.665Z,78.88
2018-03-24T01:43:22.164Z,78.34
2018-03-24T01:45:49.746Z,77.84
2018-03-24T01:48:17.186Z,78.68
2018-03-24T01:50:44.649Z,77.93
2018-03-24T01:53:12.103Z,78.26
2018-03-24T01:55:39.612Z,78.57
2018-03-24T01:58:07.072Z,79.74
2018-03-24T02:00:34.526Z,77.92
2018-03-24T02:03:02.002Z,77.77
2018-03-24T02:05:29.458Z,77.65
2018-03-24T02:07:56.937Z,78.02
2018-03-24T02:10:24.446Z,78.01
2018-03-24T02:12:51.900Z,78.13
2018-03-24T02:15:19.347Z,78.06
2018-03-24T02:17:46.826Z,77.71
2018-03-24T02:20:14.630Z,78.27
2018-03-24T02:22:42.119Z,77.99
2018-03-24T02:25:09.613Z,78.21
2018-03-24T02:27:37.070Z,78.47
2018-03-24T02:30:04.552Z,78.15
2018-03-24T02:32:32.164Z,78.48
2018-03-24T02:34:59.660Z,78.91
2018-03-24T02:37:27.120Z,78.39
2018-03-24T02:39:54.611Z,78.29
2018-03-24T02:42:22.113Z,77.84
2018-03-24T02:44:49.622Z,77.79
2018-03-24T02:47:17.086Z,78.13
2018-03-24T02:49:44.542Z,77.66
2018-03-24T02:52:12.018Z,77.09
2018-03-24T02:54:39.515Z,76.99
2018-03-24T02:57:06.972Z,77.31
2018-03-24T02:59:34.430Z,77.29
2018-03-24T03:02:01.909Z,76.95
2018-03-24T03:04:29.482Z,77.19
2018-03-24T03:06:56.942Z,76.92
2018-03-24T03:09:24.406Z,76.88
2018-03-24T03:11:51.898Z,77.06
2018-03-24T03:14:19.349Z,76.91
2018-03-24T03:16:46.887Z,76.88
2018-03-24T03:19:14.346Z,76.66
2018-03-24T03:21:51.604Z,76.38
2018-03-24T03:24:19.080Z,76.79
2018-03-24T03:26:46.555Z,76.78
2018-03-24T03:29:14.072Z,77.06
2018-03-24T03:31:41.535Z,77.26
2018-03-24T03:34:08.997Z,77.18
2018-03-24T03:36:36.480Z,76.81
2018-03-24T03:39:03.936Z,77.02
2018-03-24T03:41:31.426Z,77.23
2018-03-24T03:43:58.885Z,77.27
2018-03-24T03:46:26.330Z,77.31
2018-03-24T03:48:53.813Z,77.11
2018-03-24T03:51:21.275Z,77.35
2018-03-24T03:53:48.834Z,77.64
2018-03-24T03:56:16.339Z,77.56
2018-03-24T03:58:43.822Z,77.80
2018-03-24T04:01:11.318Z,77.70
2018-03-24T04:03:38.867Z,77.65
2018-03-24T04:06:06.322Z,77.79
2018-03-24T04:08:33.795Z,77.57
2018-03-24T04:11:01.248Z,77.69
2018-03-24T04:13:28.705Z,77.99
2018-03-24T04:15:56.182Z,78.46
2018-03-24T04:18:23.658Z,77.69
2018-03-24T04:20:51.116Z,78.03
2018-03-24T04:23:18.613Z,78.15
2018-03-24T04:25:46.075Z,78.48
2018-03-24T04:28:13.541Z,78.35
2018-03-24T04:30:41.014Z,78.29
2018-03-24T04:33:08.462Z,78.18
2018-03-24T04:35:35.941Z,78.36
2018-03-24T04:38:03.410Z,78.54
2018-03-24T04:40:30.874Z,78.80
2018-03-24T04:42:58.434Z,78.77
2018-03-24T04:45:26.001Z,78.60
2018-03-24T04:47:53.461Z,78.66
2018-03-24T04:50:20.949Z,78.85
2018-03-24T04:52:48.413Z,78.97
2018-03-24T04:55:15.905Z,78.93
2018-03-24T04:57:43.370Z,78.92
2018-03-24T05:00:10.923Z,78.58
2018-03-24T05:02:38.390Z,78.51
2018-03-24T05:05:05.996Z,78.69
2018-03-24T05:07:33.490Z,78.64
2018-03-24T05:10:00.938Z,78.59
2018-03-24T05:12:28.414Z,78.71
2018-03-24T05:14:55.871Z,78.68
2018-03-24T05:17:23.328Z,78.64
2018-03-24T05:19:50.903Z,78.52
2018-03-24T05:22:18.358Z,78.79
2018-03-24T05:24:45.832Z,78.85
2018-03-24T05:27:13.287Z,78.97
2018-03-24T05:29:40.765Z,79.10
2018-03-24T05:32:08.236Z,79.12
2018-03-24T05:34:35.694Z,78.99
2018-03-24T05:37:03.166Z,79.01
2018-03-24T05:39:30.642Z,79.07
2018-03-24T05:41:58.158Z,78.70
2018-03-24T05:44:25.627Z,78.89
2018-03-24T05:46:53.106Z,79.04
2018-03-24T05:49:20.564Z,78.89
2018-03-24T05:51:48.084Z,79.27
2018-03-24T05:54:15.654Z,79.58
2018-03-24T05:56:43.147Z,79.27
2018-03-24T05:59:10.641Z,79.75
2018-03-24T06:01:38.119Z,79.75
2018-03-24T06:04:05.612Z,79.55
2018-03-24T06:06:33.137Z,79.89
2018-03-24T06:09:00.939Z,80.73
2018-03-24T06:11:28.403Z,80.31
2018-03-24T06:13:55.874Z,80.35
2018-03-24T06:16:23.360Z,79.17
2018-03-24T06:18:50.824Z,79.41
2018-03-24T06:21:18.287Z,79.36
2018-03-24T06:23:45.756Z,78.46
2018-03-24T06:26:13.234Z,78.78
2018-03-24T06:28:40.716Z,78.90
2018-03-24T06:34:09.566Z,78.76
2018-03-24T06:36:37.354Z,78.22
2018-03-24T06:39:04.815Z,78.68
2018-03-24T06:41:32.354Z,78.42
2018-03-24T06:43:59.924Z,78.15
2018-03-24T06:46:27.420Z,78.60
2018-03-24T06:48:54.960Z,78.50
2018-03-24T06:51:22.487Z,77.94
2018-03-24T06:53:49.952Z,77.79
2018-03-24T06:56:17.421Z,77.26
2018-03-24T06:58:44.901Z,77.08
2018-03-24T07:01:12.356Z,76.69
2018-03-24T07:03:39.823Z,75.67
2018-03-24T07:06:07.307Z,74.92
2018-03-24T07:08:34.792Z,74.56
2018-03-24T07:11:02.258Z,74.36
2018-03-24T07:13:29.797Z,73.94
2018-03-24T07:15:57.265Z,73.66
2018-03-24T07:18:24.758Z,73.61
2018-03-24T07:20:52.214Z,72.82
2018-03-24T07:23:19.679Z,72.70
2018-03-24T07:25:47.158Z,72.70
2018-03-24T07:28:14.623Z,72.63
2018-03-24T07:30:42.120Z,72.30
2018-03-24T07:33:09.581Z,72.82
2018-03-24T07:35:37.079Z,72.79
2018-03-24T07:38:04.581Z,72.49
2018-03-24T07:40:32.035Z,72.20
2018-03-24T07:42:59.510Z,72.25
2018-03-24T07:45:26.974Z,71.62
2018-03-24T07:47:54.503Z,71.33
2018-03-24T07:50:21.967Z,71.28
2018-03-24T07:52:49.425Z,71.00
2018-03-24T07:55:16.926Z,71.19
2018-03-24T07:57:44.448Z,71.26
2018-03-24T08:00:11.955Z,71.37
2018-03-24T08:02:39.507Z,70.42
2018-03-24T08:05:07.005Z,70.12
2018-03-24T08:07:34.475Z,69.42
2018-03-24T08:10:02.043Z,69.39
2018-03-24T08:12:29.529Z,68.75
2018-03-24T08:14:57.054Z,69.07
2018-03-24T08:17:24.521Z,68.57
2018-03-24T08:19:51.989Z,68.86
2018-03-24T08:22:19.438Z,69.12
2018-03-24T08:24:46.924Z,69.73
2018-03-24T08:27:14.388Z,69.45
2018-03-24T08:29:41.854Z,68.70
2018-03-24T08:32:09.357Z,68.24
2018-03-24T08:34:36.914Z,68.54
2018-03-24T08:37:04.376Z,67.85
2018-03-24T08:39:31.846Z,67.95
2018-03-24T08:41:59.331Z,67.96
2018-03-24T08:44:26.798Z,67.74
2018-03-24T08:46:54.282Z,67.83
2018-03-24T08:49:21.755Z,66.89
2018-03-24T08:51:49.237Z,66.69
2018-03-24T08:54:16.710Z,66.32
2018-03-24T08:56:44.175Z,66.06
2018-03-24T08:59:11.698Z,66.33
2018-03-24T09:01:39.167Z,66.47
2018-03-24T09:04:06.642Z,65.70
2018-03-24T09:06:34.116Z,65.78
2018-03-24T09:09:01.652Z,65.38
2018-03-24T09:11:29.186Z,65.40
2018-03-24T09:13:56.656Z,64.63
2018-03-24T09:16:24.122Z,64.68
2018-03-24T09:18:51.612Z,64.75
2018-03-24T09:21:19.088Z,65.13
2018-03-24T09:23:46.551Z,65.15
2018-03-24T09:26:14.035Z,64.05
2018-03-24T09:28:41.502Z,64.09
2018-03-24T09:31:08.968Z,64.44
2018-03-24T09:33:36.474Z,64.22
2018-03-24T09:36:03.947Z,64.58
2018-03-24T09:38:31.423Z,64.56
2018-03-24T09:40:58.888Z,64.38
2018-03-24T09:43:26.463Z,63.34
2018-03-24T09:45:53.954Z,62.74
2018-03-24T09:48:21.406Z,62.05
2018-03-24T09:50:48.866Z,61.56
2018-03-24T09:53:16.356Z,61.40
2018-03-24T09:55:43.872Z,61.64
2018-03-24T09:58:11.343Z,61.15
2018-03-24T10:00:38.818Z,60.96
2018-03-24T10:03:06.287Z,60.91
2018-03-24T10:05:33.811Z,60.90
2018-03-24T10:08:01.322Z,63.03
2018-03-24T10:10:28.779Z,63.61
2018-03-24T10:12:56.282Z,62.87
2018-03-24T10:15:23.758Z,63.67
2018-03-24T10:17:51.227Z,63.88
2018-03-24T10:20:18.714Z,63.90
2018-03-24T10:23:06.077Z,64.16
2018-03-24T10:25:33.568Z,63.96
2018-03-24T10:28:01.087Z,62.16
2018-03-24T10:30:28.558Z,62.50
2018-03-24T10:32:56.037Z,62.19
2018-03-24T10:35:23.581Z,61.40
2018-03-24T10:37:56.690Z,61.19
2018-03-24T10:40:24.285Z,62.25
2018-03-24T10:42:57.450Z,62.10
2018-03-24T10:45:24.943Z,62.12
2018-03-24T10:47:52.470Z,60.66
2018-03-24T10:50:19.953Z,60.21
2018-03-24T10:52:47.451Z,59.26
2018-03-24T10:55:14.917Z,56.33
2018-03-24T10:57:42.382Z,56.59
2018-03-24T11:00:09.894Z,57.05
2018-03-24T11:02:37.381Z,57.05
2018-03-24T11:05:04.858Z,55.72
2018-03-24T11:07:32.351Z,55.02
2018-03-24T11:09:59.818Z,55.03
2018-03-24T11:12:27.283Z,55.37
2018-03-24T11:14:54.789Z,57.13
2018-03-24T11:17:22.256Z,57.25
2018-03-24T11:19:49.735Z,57.42
2018-03-24T11:22:17.342Z,58.10
2018-03-24T11:24:44.871Z,57.03
2018-03-24T11:27:12.334Z,56.60
2018-03-24T11:29:39.827Z,56.30
2018-03-24T11:32:07.323Z,55.20
2018-03-24T11:34:34.806Z,56.14
2018-03-24T11:37:02.303Z,56.35
2018-03-24T11:39:29.798Z,55.97
2018-03-24T11:41:57.295Z,55.85
2018-03-24T11:44:24.754Z,55.95
2018-03-24T11:46:52.223Z,55.97
2018-03-24T11:49:19.704Z,55.73
2018-03-24T11:51:47.162Z,54.72
2018-03-24T11:54:14.640Z,54.54
2018-03-24T11:56:42.131Z,53.94
2018-03-24T11:59:09.599Z,53.70
2018-03-24T12:01:37.055Z,54.03
2018-03-24T12:04:04.551Z,53.54
2018-03-24T12:06:32.016Z,53.84
2018-03-24T12:08:59.593Z,53.98
2018-03-24T12:11:27.090Z,53.71
2018-03-24T12:13:54.571Z,53.58
2018-03-24T12:16:22.061Z,54.32
2018-03-24T12:18:49.505Z,54.16
2018-03-24T12:21:17.014Z,55.05
2018-03-24T12:23:44.513Z,55.18
2018-03-24T12:26:11.974Z,54.87
2018-03-24T12:28:39.442Z,54.94
2018-03-24T12:31:06.917Z,54.17
2018-03-24T12:33:34.387Z,53.08
2018-03-24T12:36:01.874Z,53.17
2018-03-24T12:38:29.350Z,52.49
2018-03-24T12:40:56.873Z,50.58
2018-03-24T12:43:24.391Z,50.17
2018-03-24T12:45:51.848Z,49.27
2018-03-24T12:48:19.327Z,49.35
2018-03-24T12:50:46.969Z,52.25
2018-03-24T12:53:14.450Z,52.07
2018-03-24T12:55:41.999Z,51.76
2018-03-24T12:58:09.461Z,51.64
2018-03-24T13:00:36.945Z,52.35
2018-03-24T13:03:04.443Z,54.39
2018-03-24T13:05:31.908Z,53.97
2018-03-24T13:07:59.378Z,54.32
2018-03-24T13:10:26.893Z,54.50
2018-03-24T13:12:54.427Z,54.40
2018-03-24T13:15:21.948Z,54.28
2018-03-24T13:17:49.406Z,54.67
2018-03-24T13:20:16.870Z,54.30
2018-03-24T13:22:44.373Z,53.43
2018-03-24T13:25:11.905Z,51.51
2018-03-24T13:27:39.432Z,51.29
2018-03-24T13:30:06.902Z,51.89
2018-03-24T13:32:34.399Z,52.47
2018-03-24T13:35:01.954Z,51.77
2018-03-24T13:37:29.491Z,50.39
2018-03-24T13:39:56.959Z,50.79
2018-03-24T13:42:24.555Z,49.99
2018-03-24T13:44:52.029Z,49.84
2018-03-24T13:47:19.551Z,49.29
2018-03-24T13:49:47.095Z,50.37
2018-03-24T13:52:14.556Z,51.71
2018-03-24T13:54:42.036Z,50.91
2018-03-24T13:57:09.522Z,51.30
2018-03-24T13:59:36.988Z,51.77
2018-03-24T14:02:04.478Z,52.49
2018-03-24T14:04:32.025Z,52.79
2018-03-24T14:06:59.530Z,53.32
2018-03-24T14:09:27.126Z,53.02
2018-03-24T14:11:54.627Z,52.54
2018-03-24T14:14:22.138Z,52.69
2018-03-24T14:16:49.594Z,52.89
2018-03-24T14:19:17.117Z,53.56
2018-03-24T14:21:44.597Z,53.01
2018-03-24T14:24:12.077Z,53.41
2018-03-24T14:26:39.565Z,54.07
2018-03-24T14:29:07.111Z,54.75
2018-03-24T14:31:34.602Z,54.76
2018-03-24T14:34:02.081Z,54.93
2018-03-24T14:36:29.543Z,55.16
2018-03-24T14:38:57.013Z,54.18
2018-03-24T14:41:24.600Z,55.35
2018-03-24T14:43:52.176Z,56.07
2018-03-24T14:46:19.642Z,56.13
2018-03-24T14:48:47.250Z,56.17
2018-03-24T14:51:14.712Z,55.68
2018-03-24T14:53:42.175Z,55.73
2018-03-24T14:56:09.775Z,55.77
2018-03-24T14:58:37.263Z,55.60
2018-03-24T15:01:04.726Z,54.41
2018-03-24T15:03:32.184Z,54.89
2018-03-24T15:05:59.674Z,54.45
2018-03-24T15:08:27.288Z,54.14
2018-03-24T15:10:54.750Z,53.88
2018-03-24T15:13:22.257Z,53.64
2018-03-24T15:15:49.723Z,54.63
2018-03-24T15:18:17.318Z,54.94
2018-03-24T15:20:44.807Z,55.30
2018-03-24T15:23:12.386Z,54.95
2018-03-24T15:25:39.931Z,55.67
2018-03-24T15:28:07.413Z,55.76
2018-03-24T15:30:46.798Z,55.01
2018-03-24T15:33:26.144Z,55.08
2018-03-24T15:36:05.646Z,55.00
2018-03-24T15:38:33.231Z,54.54
2018-03-24T15:41:00.888Z,54.87
2018-03-24T15:43:28.370Z,55.31
2018-03-24T15:45:55.862Z,55.72
2018-03-24T15:48:23.421Z,55.71
2018-03-24T15:50:50.875Z,55.94
2018-03-24T15:53:18.349Z,56.05
2018-03-24T15:55:45.839Z,55.35
2018-03-24T15:58:13.366Z,55.04
2018-03-24T16:00:40.825Z,54.76
2018-03-24T16:03:08.301Z,54.76
2018-03-24T16:05:35.771Z,55.36
2018-03-24T16:08:03.263Z,55.48
2018-03-24T16:10:30.737Z,54.31
2018-03-24T16:12:58.210Z,51.60
2018-03-24T16:15:25.709Z,49.95
2018-03-24T16:17:53.179Z,49.36
2018-03-24T16:20:20.635Z,49.06
2018-03-24T16:22:48.209Z,48.90
2018-03-24T16:25:15.709Z,49.35
2018-03-24T16:27:43.205Z,49.89
2018-03-24T16:30:10.707Z,50.46
2018-03-24T16:32:38.969Z,50.69
2018-03-24T16:35:06.426Z,51.46
2018-03-24T16:37:33.986Z,51.92
2018-03-24T16:40:01.467Z,53.11
2018-03-24T16:42:28.970Z,53.50
2018-03-24T16:44:56.474Z,53.85
2018-03-24T16:47:24.140Z,54.49
2018-03-24T16:49:51.613Z,56.08
2018-03-24T16:52:19.084Z,56.62
2018-03-24T16:54:46.589Z,57.56
2018-03-24T16:57:14.053Z,58.26
2018-03-24T16:59:41.539Z,58.47
2018-03-24T17:02:09.037Z,58.89
2018-03-24T17:04:36.498Z,59.03
2018-03-24T17:07:03.992Z,58.94
2018-03-24T17:09:31.492Z,59.26
2018-03-24T17:11:58.954Z,59.63
2018-03-24T17:14:26.452Z,59.96
2018-03-24T17:16:53.943Z,60.16
2018-03-24T17:19:21.424Z,60.30
2018-03-24T17:21:48.912Z,60.58
2018-03-24T17:24:16.422Z,60.71
2018-03-24T17:26:43.892Z,61.09
2018-03-24T17:29:11.435Z,61.10
2018-03-24T17:31:38.974Z,61.48
2018-03-24T17:34:06.485Z,61.67
2018-03-24T17:36:33.958Z,61.86
2018-03-24T17:39:01.428Z,61.90
2018-03-24T17:41:28.959Z,62.03
2018-03-24T17:43:56.496Z,62.26
2018-03-24T17:46:24.012Z,62.35
2018-03-24T17:48:51.532Z,62.54
2018-03-24T17:51:18.967Z,62.61
2018-03-24T17:53:46.437Z,62.81
2018-03-24T17:56:13.902Z,62.96
2018-03-24T17:58:41.393Z,63.32
2018-03-24T18:01:08.878Z,63.51
2018-03-24T18:03:36.354Z,63.87
2018-03-24T18:06:03.830Z,63.83
2018-03-24T18:08:31.327Z,64.12
2018-03-24T18:10:58.792Z,64.32
2018-03-24T18:13:26.270Z,64.46
2018-03-24T18:15:53.758Z,64.81
2018-03-24T18:18:21.323Z,65.23
2018-03-24T18:20:48.867Z,65.49
2018-03-24T18:23:16.364Z,65.74
2018-03-24T18:25:43.894Z,65.86
2018-03-24T18:28:11.380Z,66.20
2018-03-24T18:30:38.838Z,66.58
2018-03-24T18:33:06.362Z,66.84
2018-03-24T18:35:33.855Z,66.87
2018-03-24T18:38:01.394Z,67.14
2018-03-24T18:40:28.868Z,67.25
2018-03-24T18:42:56.399Z,67.53
2018-03-24T18:45:23.861Z,67.74
2018-03-24T18:47:51.350Z,67.65
2018-03-24T18:50:18.874Z,67.91
2018-03-24T18:52:46.352Z,68.01
2018-03-24T18:55:13.968Z,68.01
2018-03-24T18:57:41.423Z,68.26
2018-03-24T19:00:09.015Z,68.46
2018-03-24T19:02:36.473Z,68.67
2018-03-24T19:05:03.947Z,68.79
2018-03-24T19:07:31.433Z,69.08
2018-03-24T19:09:58.910Z,68.94
2018-03-24T19:12:26.407Z,69.14
2018-03-24T19:14:53.898Z,69.25
2018-03-24T19:17:21.375Z,69.45
2018-03-24T19:19:48.888Z,69.66
2018-03-24T19:22:16.352Z,69.85
2018-03-24T19:24:43.831Z,70.10
2018-03-24T19:27:11.294Z,70.07
2018-03-24T19:29:38.771Z,70.18
2018-03-24T19:32:06.274Z,70.30
2018-03-24T19:34:33.752Z,70.38
2018-03-24T19:37:01.221Z,70.42
2018-03-24T19:39:28.713Z,70.43
2018-03-24T19:41:56.186Z,70.57
2018-03-24T19:44:23.680Z,70.73
2018-03-24T19:46:51.250Z,70.67
2018-03-24T19:49:18.722Z,70.93
2018-03-24T19:51:46.182Z,71.11
2018-03-24T19:54:13.667Z,71.20
2018-03-24T19:56:41.121Z,71.38
2018-03-24T19:59:08.592Z,71.57
2018-03-24T20:01:36.066Z,71.60
2018-03-24T20:04:03.599Z,71.80
2018-03-24T20:06:31.936Z,72.04
2018-03-24T20:08:59.405Z,72.45
2018-03-24T20:11:26.928Z,72.07
2018-03-24T20:13:54.387Z,72.10
2018-03-24T20:16:21.850Z,72.15
2018-03-24T20:18:49.354Z,72.33
2018-03-24T20:21:16.839Z,72.54
2018-03-24T20:23:44.339Z,72.55
2018-03-24T20:26:11.839Z,72.64
2018-03-24T20:28:39.371Z,72.89
2018-03-24T20:31:06.831Z,73.05
2018-03-24T20:33:34.351Z,73.09
2018-03-24T20:36:01.812Z,73.11
2018-03-24T20:38:29.280Z,73.12
2018-03-24T20:40:56.779Z,73.12
2018-03-24T20:43:24.255Z,73.27
2018-03-24T20:45:51.756Z,73.05
2018-03-24T20:48:19.287Z,73.18
2018-03-24T20:50:46.767Z,73.07
2018-03-24T20:53:14.226Z,73.09
2018-03-24T20:55:41.699Z,73.42
2018-03-24T20:58:09.159Z,73.34
2018-03-24T21:00:36.667Z,73.46
2018-03-24T21:03:04.157Z,73.45
2018-03-24T21:05:31.643Z,73.54
2018-03-24T21:07:59.127Z,73.44
2018-03-24T21:10:27.098Z,73.56
2018-03-24T21:12:54.571Z,73.72
2018-03-24T21:15:22.030Z,73.71
2018-03-24T21:17:49.524Z,73.73
2018-03-24T21:20:17.041Z,73.86
2018-03-24T21:22:44.565Z,73.93
2018-03-24T21:25:12.034Z,73.95
2018-03-24T21:27:39.518Z,74.11
2018-03-24T21:30:07.008Z,74.15
2018-03-24T21:32:34.481Z,74.16
2018-03-24T21:35:01.958Z,74.32
2018-03-24T21:37:29.567Z,74.57
2018-03-24T21:39:57.065Z,74.59
2018-03-24T21:42:24.588Z,74.58
2018-03-24T21:44:52.068Z,74.73
2018-03-24T21:47:19.601Z,74.83
2018-03-24T21:49:47.143Z,74.91
2018-03-24T21:52:14.696Z,75.06
2018-03-24T21:54:42.291Z,75.26
2018-03-24T21:57:09.894Z,75.27
2018-03-24T21:59:37.379Z,76.46
2018-03-24T22:02:04.878Z,76.04
2018-03-24T22:04:32.380Z,75.48
2018-03-24T22:06:59.869Z,75.97
2018-03-24T22:09:27.342Z,75.89
2018-03-24T22:11:54.873Z,75.53
2018-03-24T22:14:22.436Z,75.62
2018-03-24T22:16:49.925Z,75.57
2018-03-24T22:19:17.390Z,75.85
2018-03-24T22:21:44.863Z,75.59
2018-03-24T22:24:12.326Z,75.79
2018-03-24T22:26:39.824Z,75.77
2018-03-24T22:29:07.542Z,75.83
2018-03-24T22:31:35.013Z,75.68
2018-03-24T22:34:02.505Z,76.04
2018-03-24T22:36:30.090Z,76.30
2018-03-24T22:38:57.560Z,76.38
2018-03-24T22:41:25.091Z,76.53
2018-03-24T22:43:52.559Z,76.57
2018-03-24T22:46:20.039Z,76.63
2018-03-24T22:48:47.555Z,76.84
2018-03-24T22:51:15.018Z,77.07
2018-03-24T22:53:42.546Z,77.05
2018-03-24T22:56:10.019Z,77.68
2018-03-24T22:58:37.513Z,77.38
2018-03-24T23:01:05.022Z,77.38
2018-03-24T23:03:32.479Z,77.50
2018-03-24T23:05:59.938Z,77.73
2018-03-24T23:08:27.427Z,77.81
2018-03-24T23:10:54.887Z,77.96
2018-03-24T23:13:22.356Z,78.06
2018-03-24T23:15:49.847Z,78.38
2018-03-24T23:18:17.327Z,78.32
2018-03-24T23:20:44.803Z,78.22
2018-03-24T23:23:12.392Z,78.34
2018-03-24T23:25:39.866Z,78.72
2018-03-24T23:28:07.336Z,78.91
2018-03-24T23:30:34.816Z,80.23
2018-03-24T23:33:02.280Z,79.11
2018-03-24T23:35:29.740Z,79.01
2018-03-24T23:37:57.226Z,79.48
2018-03-24T23:40:24.681Z,79.37
2018-03-24T23:42:52.150Z,79.82
2018-03-24T23:45:19.645Z,79.47
2018-03-24T23:47:47.093Z,79.47
2018-03-24T23:50:14.566Z,79.74
2018-03-24T23:52:42.036Z,80.05
2018-03-24T23:55:09.591Z,80.09
2018-03-24T23:57:37.058Z,80.23
